sensor_id;sensor_type;location;lat;lon;timestamp;temperature;humidity
75387;DHT22;63966;47.914;22.266;2024-03-02T00:02:44;12.61;65.55
75387;DHT22;63966;47.914;22.266;2024-03-02T00:05:51;12.83;64.07
75387;DHT22;63966;47.914;22.266;2024-03-02T00:08:58;12.86;63.26
75387;DHT22;63966;47.914;22.266;2024-03-02T00:12:02;12.76;63.48
75387;DHT22;63966;47.914;22.266;2024-03-02T00:18:47;12.93;62.80
75387;DHT22;63966;47.914;22.266;2024-03-02T00:21:51;12.95;61.86
75387;DHT22;63966;47.914;22.266;2024-03-02T00:24:55;12.75;61.92
75387;DHT22;63966;47.914;22.266;2024-03-02T00:27:58;12.71;62.06
75387;DHT22;63966;47.914;22.266;2024-03-02T00:31:08;12.75;61.43
75387;DHT22;63966;47.914;22.266;2024-03-02T00:34:14;12.83;60.91
75387;DHT22;63966;47.914;22.266;2024-03-02T00:37:19;12.82;60.76
75387;DHT22;63966;47.914;22.266;2024-03-02T00:40:28;12.83;60.16
75387;DHT22;63966;47.914;22.266;2024-03-02T00:44:00;12.88;59.69
75387;DHT22;63966;47.914;22.266;2024-03-02T00:47:04;12.88;59.40
75387;DHT22;63966;47.914;22.266;2024-03-02T00:50:07;12.76;59.53
75387;DHT22;63966;47.914;22.266;2024-03-02T00:53:27;12.81;59.09
75387;DHT22;63966;47.914;22.266;2024-03-02T00:56:31;12.95;58.83
75387;DHT22;63966;47.914;22.266;2024-03-02T00:59:35;12.88;59.14
75387;DHT22;63966;47.914;22.266;2024-03-02T01:02:39;12.85;59.70
75387;DHT22;63966;47.914;22.266;2024-03-02T01:05:43;12.81;60.00
75387;DHT22;63966;47.914;22.266;2024-03-02T01:08:46;12.82;59.78
75387;DHT22;63966;47.914;22.266;2024-03-02T01:11:55;12.78;59.24
75387;DHT22;63966;47.914;22.266;2024-03-02T01:14:58;12.72;59.31
75387;DHT22;63966;47.914;22.266;2024-03-02T01:18:02;12.71;59.68
75387;DHT22;63966;47.914;22.266;2024-03-02T01:21:06;12.72;59.65
75387;DHT22;63966;47.914;22.266;2024-03-02T01:24:09;12.68;59.59
75387;DHT22;63966;47.914;22.266;2024-03-02T01:27:33;12.62;59.65
75387;DHT22;63966;47.914;22.266;2024-03-02T01:30:36;12.73;59.17
75387;DHT22;63966;47.914;22.266;2024-03-02T01:33:39;12.65;59.24
75387;DHT22;63966;47.914;22.266;2024-03-02T01:36:43;12.65;59.19
75387;DHT22;63966;47.914;22.266;2024-03-02T01:39:46;12.64;59.35
75387;DHT22;63966;47.914;22.266;2024-03-02T01:42:50;12.55;59.72
75387;DHT22;63966;47.914;22.266;2024-03-02T01:45:54;12.54;60.10
75387;DHT22;63966;47.914;22.266;2024-03-02T01:48:57;12.55;59.54
75387;DHT22;63966;47.914;22.266;2024-03-02T01:52:01;12.48;59.58
75387;DHT22;63966;47.914;22.266;2024-03-02T01:55:05;12.51;59.73
75387;DHT22;63966;47.914;22.266;2024-03-02T01:58:09;12.48;60.04
75387;DHT22;63966;47.914;22.266;2024-03-02T02:01:12;12.44;59.76
75387;DHT22;63966;47.914;22.266;2024-03-02T02:04:16;12.55;59.29
75387;DHT22;63966;47.914;22.266;2024-03-02T02:07:20;12.37;59.82
75387;DHT22;63966;47.914;22.266;2024-03-02T02:10:24;12.38;59.64
75387;DHT22;63966;47.914;22.266;2024-03-02T02:13:27;12.38;59.67
75387;DHT22;63966;47.914;22.266;2024-03-02T02:16:30;12.35;59.70
75387;DHT22;63966;47.914;22.266;2024-03-02T02:19:34;12.52;59.18
75387;DHT22;63966;47.914;22.266;2024-03-02T02:22:37;12.46;58.61
75387;DHT22;63966;47.914;22.266;2024-03-02T02:25:41;12.44;59.32
75387;DHT22;63966;47.914;22.266;2024-03-02T02:28:44;12.48;57.98
75387;DHT22;63966;47.914;22.266;2024-03-02T02:31:50;12.44;57.93
75387;DHT22;63966;47.914;22.266;2024-03-02T02:34:53;12.41;57.57
75387;DHT22;63966;47.914;22.266;2024-03-02T02:37:57;12.33;57.88
75387;DHT22;63966;47.914;22.266;2024-03-02T02:41:02;12.35;57.80
75387;DHT22;63966;47.914;22.266;2024-03-02T02:44:06;12.24;57.67
75387;DHT22;63966;47.914;22.266;2024-03-02T02:47:09;12.27;57.53
75387;DHT22;63966;47.914;22.266;2024-03-02T02:50:13;12.33;57.24
75387;DHT22;63966;47.914;22.266;2024-03-02T02:53:16;12.18;57.82
75387;DHT22;63966;47.914;22.266;2024-03-02T02:56:21;12.45;56.79
75387;DHT22;63966;47.914;22.266;2024-03-02T02:59:25;12.52;56.94
75387;DHT22;63966;47.914;22.266;2024-03-02T03:02:28;12.40;57.02
75387;DHT22;63966;47.914;22.266;2024-03-02T03:05:32;12.34;56.80
75387;DHT22;63966;47.914;22.266;2024-03-02T03:08:35;12.34;56.80
75387;DHT22;63966;47.914;22.266;2024-03-02T03:11:39;12.28;56.94
75387;DHT22;63966;47.914;22.266;2024-03-02T03:14:42;12.20;57.54
75387;DHT22;63966;47.914;22.266;2024-03-02T03:17:45;12.18;57.59
75387;DHT22;63966;47.914;22.266;2024-03-02T03:20:50;12.23;57.73
75387;DHT22;63966;47.914;22.266;2024-03-02T03:23:54;12.27;57.71
75387;DHT22;63966;47.914;22.266;2024-03-02T03:26:58;12.20;57.84
75387;DHT22;63966;47.914;22.266;2024-03-02T03:30:02;12.25;58.04
75387;DHT22;63966;47.914;22.266;2024-03-02T03:33:06;12.17;58.28
75387;DHT22;63966;47.914;22.266;2024-03-02T03:36:09;12.16;58.21
75387;DHT22;63966;47.914;22.266;2024-03-02T03:39:13;12.06;58.72
75387;DHT22;63966;47.914;22.266;2024-03-02T03:42:16;12.12;58.34
75387;DHT22;63966;47.914;22.266;2024-03-02T03:45:20;11.98;58.76
75387;DHT22;63966;47.914;22.266;2024-03-02T03:48:24;11.97;58.85
75387;DHT22;63966;47.914;22.266;2024-03-02T03:51:34;11.87;59.51
75387;DHT22;63966;47.914;22.266;2024-03-02T03:54:38;11.87;59.68
75387;DHT22;63966;47.914;22.266;2024-03-02T03:57:42;11.82;59.83
75387;DHT22;63966;47.914;22.266;2024-03-02T04:00:45;11.65;60.45
75387;DHT22;63966;47.914;22.266;2024-03-02T04:03:49;11.65;60.64
75387;DHT22;63966;47.914;22.266;2024-03-02T04:06:52;11.68;60.72
75387;DHT22;63966;47.914;22.266;2024-03-02T04:09:57;11.62;60.87
75387;DHT22;63966;47.914;22.266;2024-03-02T04:13:00;11.57;61.01
75387;DHT22;63966;47.914;22.266;2024-03-02T04:16:04;11.49;61.56
75387;DHT22;63966;47.914;22.266;2024-03-02T04:19:08;11.43;61.78
75387;DHT22;63966;47.914;22.266;2024-03-02T04:22:11;11.49;61.61
75387;DHT22;63966;47.914;22.266;2024-03-02T04:25:26;11.46;61.78
75387;DHT22;63966;47.914;22.266;2024-03-02T04:28:30;11.31;62.30
75387;DHT22;63966;47.914;22.266;2024-03-02T04:31:33;11.27;62.63
75387;DHT22;63966;47.914;22.266;2024-03-02T04:34:37;11.28;62.22
75387;DHT22;63966;47.914;22.266;2024-03-02T04:37:40;11.24;62.64
75387;DHT22;63966;47.914;22.266;2024-03-02T04:40:44;11.25;62.48
75387;DHT22;63966;47.914;22.266;2024-03-02T04:43:47;11.32;62.15
75387;DHT22;63966;47.914;22.266;2024-03-02T04:46:50;11.35;62.18
75387;DHT22;63966;47.914;22.266;2024-03-02T04:49:54;11.22;62.64
75387;DHT22;63966;47.914;22.266;2024-03-02T04:52:57;11.27;62.66
75387;DHT22;63966;47.914;22.266;2024-03-02T04:56:04;11.32;62.23
75387;DHT22;63966;47.914;22.266;2024-03-02T04:59:42;11.25;62.78
75387;DHT22;63966;47.914;22.266;2024-03-02T05:02:45;11.39;62.63
75387;DHT22;63966;47.914;22.266;2024-03-02T05:05:48;11.29;61.98
75387;DHT22;63966;47.914;22.266;2024-03-02T05:08:52;11.38;61.78
75387;DHT22;63966;47.914;22.266;2024-03-02T05:11:55;11.29;62.21
75387;DHT22;63966;47.914;22.266;2024-03-02T05:15:19;11.15;62.66
75387;DHT22;63966;47.914;22.266;2024-03-02T05:18:23;11.10;62.64
75387;DHT22;63966;47.914;22.266;2024-03-02T05:21:27;11.20;62.01
75387;DHT22;63966;47.914;22.266;2024-03-02T05:24:30;11.18;62.31
75387;DHT22;63966;47.914;22.266;2024-03-02T05:27:34;11.14;62.50
75387;DHT22;63966;47.914;22.266;2024-03-02T05:30:37;11.17;62.53
75387;DHT22;63966;47.914;22.266;2024-03-02T05:33:41;11.42;62.52
75387;DHT22;63966;47.914;22.266;2024-03-02T05:36:44;11.43;62.08
75387;DHT22;63966;47.914;22.266;2024-03-02T05:39:48;11.46;62.92
75387;DHT22;63966;47.914;22.266;2024-03-02T05:42:51;11.42;62.68
75387;DHT22;63966;47.914;22.266;2024-03-02T05:45:55;11.34;62.81
75387;DHT22;63966;47.914;22.266;2024-03-02T05:49:00;11.42;62.27
75387;DHT22;63966;47.914;22.266;2024-03-02T05:52:04;11.57;61.68
75387;DHT22;63966;47.914;22.266;2024-03-02T05:55:07;11.75;62.27
75387;DHT22;63966;47.914;22.266;2024-03-02T05:58:11;11.69;62.82
75387;DHT22;63966;47.914;22.266;2024-03-02T06:01:32;11.76;62.82
75387;DHT22;63966;47.914;22.266;2024-03-02T06:04:36;11.83;62.49
75387;DHT22;63966;47.914;22.266;2024-03-02T06:07:39;11.76;62.78
75387;DHT22;63966;47.914;22.266;2024-03-02T06:10:43;11.73;63.36
75387;DHT22;63966;47.914;22.266;2024-03-02T06:13:47;12.16;61.35
75387;DHT22;63966;47.914;22.266;2024-03-02T06:16:50;11.77;63.85
75387;DHT22;63966;47.914;22.266;2024-03-02T06:19:54;11.70;64.17
75387;DHT22;63966;47.914;22.266;2024-03-02T06:22:57;11.76;65.33
75387;DHT22;63966;47.914;22.266;2024-03-02T06:26:01;11.91;64.32
75387;DHT22;63966;47.914;22.266;2024-03-02T06:29:05;12.12;63.75
75387;DHT22;63966;47.914;22.266;2024-03-02T06:32:08;12.10;62.30
75387;DHT22;63966;47.914;22.266;2024-03-02T06:35:12;12.00;62.84
75387;DHT22;63966;47.914;22.266;2024-03-02T06:38:15;12.14;62.00
75387;DHT22;63966;47.914;22.266;2024-03-02T06:41:19;12.24;60.86
75387;DHT22;63966;47.914;22.266;2024-03-02T06:44:22;12.01;61.55
75387;DHT22;63966;47.914;22.266;2024-03-02T06:47:25;12.21;61.11
75387;DHT22;63966;47.914;22.266;2024-03-02T06:50:29;12.27;61.54
75387;DHT22;63966;47.914;22.266;2024-03-02T06:53:33;12.33;62.50
75387;DHT22;63966;47.914;22.266;2024-03-02T06:56:37;12.68;59.54
75387;DHT22;63966;47.914;22.266;2024-03-02T06:59:41;12.69;61.39
75387;DHT22;63966;47.914;22.266;2024-03-02T07:02:45;12.49;63.39
75387;DHT22;63966;47.914;22.266;2024-03-02T07:05:48;12.23;61.43
75387;DHT22;63966;47.914;22.266;2024-03-02T07:08:52;11.98;63.66
75387;DHT22;63966;47.914;22.266;2024-03-02T07:11:55;12.06;63.25
75387;DHT22;63966;47.914;22.266;2024-03-02T07:14:59;12.00;63.91
75387;DHT22;63966;47.914;22.266;2024-03-02T07:18:08;12.25;63.64
75387;DHT22;63966;47.914;22.266;2024-03-02T07:21:11;12.56;62.39
75387;DHT22;63966;47.914;22.266;2024-03-02T07:24:14;12.75;62.69
75387;DHT22;63966;47.914;22.266;2024-03-02T07:27:19;12.66;62.26
75387;DHT22;63966;47.914;22.266;2024-03-02T07:30:23;12.69;63.90
75387;DHT22;63966;47.914;22.266;2024-03-02T07:33:26;12.75;65.07
75387;DHT22;63966;47.914;22.266;2024-03-02T07:36:30;12.78;64.26
75387;DHT22;63966;47.914;22.266;2024-03-02T07:39:33;12.85;64.42
75387;DHT22;63966;47.914;22.266;2024-03-02T07:42:40;13.09;64.97
75387;DHT22;63966;47.914;22.266;2024-03-02T07:45:44;13.10;63.48
75387;DHT22;63966;47.914;22.266;2024-03-02T07:48:47;13.69;61.50
75387;DHT22;63966;47.914;22.266;2024-03-02T07:51:51;14.01;59.06
75387;DHT22;63966;47.914;22.266;2024-03-02T07:54:55;14.06;58.62
75387;DHT22;63966;47.914;22.266;2024-03-02T07:57:58;14.13;58.43
75387;DHT22;63966;47.914;22.266;2024-03-02T08:01:02;14.19;57.83
75387;DHT22;63966;47.914;22.266;2024-03-02T08:04:06;14.44;58.08
75387;DHT22;63966;47.914;22.266;2024-03-02T08:07:09;14.43;59.22
75387;DHT22;63966;47.914;22.266;2024-03-02T08:10:13;14.63;58.34
75387;DHT22;63966;47.914;22.266;2024-03-02T08:13:17;14.53;58.45
75387;DHT22;63966;47.914;22.266;2024-03-02T08:16:24;14.87;59.06
75387;DHT22;63966;47.914;22.266;2024-03-02T08:19:28;15.15;57.98
75387;DHT22;63966;47.914;22.266;2024-03-02T08:22:32;15.19;57.57
75387;DHT22;63966;47.914;22.266;2024-03-02T08:25:35;15.29;57.46
75387;DHT22;63966;47.914;22.266;2024-03-02T08:28:39;15.38;57.91
75387;DHT22;63966;47.914;22.266;2024-03-02T08:31:46;15.06;58.79
75387;DHT22;63966;47.914;22.266;2024-03-02T08:34:49;15.38;57.79
75387;DHT22;63966;47.914;22.266;2024-03-02T08:37:52;14.71;58.19
75387;DHT22;63966;47.914;22.266;2024-03-02T08:40:56;14.53;59.81
75387;DHT22;63966;47.914;22.266;2024-03-02T08:43:59;14.73;59.89
75387;DHT22;63966;47.914;22.266;2024-03-02T08:47:04;15.43;59.94
75387;DHT22;63966;47.914;22.266;2024-03-02T08:50:08;15.80;61.26
75387;DHT22;63966;47.914;22.266;2024-03-02T08:53:12;15.36;60.08
75387;DHT22;63966;47.914;22.266;2024-03-02T08:56:16;15.64;61.03
75387;DHT22;63966;47.914;22.266;2024-03-02T08:59:20;15.64;61.35
75387;DHT22;63966;47.914;22.266;2024-03-02T09:02:24;15.98;58.30
75387;DHT22;63966;47.914;22.266;2024-03-02T09:05:28;16.51;56.88
75387;DHT22;63966;47.914;22.266;2024-03-02T09:08:31;16.94;56.93
75387;DHT22;63966;47.914;22.266;2024-03-02T09:11:35;17.18;57.60
75387;DHT22;63966;47.914;22.266;2024-03-02T09:14:41;17.10;56.72
75387;DHT22;63966;47.914;22.266;2024-03-02T09:17:44;16.88;55.69
75387;DHT22;63966;47.914;22.266;2024-03-02T09:20:48;17.06;56.84
75387;DHT22;63966;47.914;22.266;2024-03-02T09:23:51;16.73;56.54
75387;DHT22;63966;47.914;22.266;2024-03-02T09:26:55;16.69;56.37
75387;DHT22;63966;47.914;22.266;2024-03-02T09:29:58;16.02;58.40
75387;DHT22;63966;47.914;22.266;2024-03-02T09:33:20;16.39;57.79
75387;DHT22;63966;47.914;22.266;2024-03-02T09:36:24;15.90;59.00
75387;DHT22;63966;47.914;22.266;2024-03-02T09:39:27;15.66;59.75
75387;DHT22;63966;47.914;22.266;2024-03-02T09:42:31;15.70;58.89
75387;DHT22;63966;47.914;22.266;2024-03-02T09:45:35;15.64;60.56
75387;DHT22;63966;47.914;22.266;2024-03-02T09:48:39;15.84;58.98
75387;DHT22;63966;47.914;22.266;2024-03-02T09:51:49;16.01;58.52
75387;DHT22;63966;47.914;22.266;2024-03-02T09:54:53;16.15;58.52
75387;DHT22;63966;47.914;22.266;2024-03-02T09:57:57;16.30;57.36
75387;DHT22;63966;47.914;22.266;2024-03-02T10:01:00;16.24;58.21
75387;DHT22;63966;47.914;22.266;2024-03-02T10:04:06;16.32;58.16
75387;DHT22;63966;47.914;22.266;2024-03-02T10:07:17;16.25;58.13
75387;DHT22;63966;47.914;22.266;2024-03-02T10:10:21;16.11;58.62
75387;DHT22;63966;47.914;22.266;2024-03-02T10:13:26;16.05;58.45
75387;DHT22;63966;47.914;22.266;2024-03-02T10:16:30;16.29;58.61
75387;DHT22;63966;47.914;22.266;2024-03-02T10:19:34;16.08;58.63
75387;DHT22;63966;47.914;22.266;2024-03-02T10:22:38;16.46;57.90
75387;DHT22;63966;47.914;22.266;2024-03-02T10:25:42;16.76;56.86
75387;DHT22;63966;47.914;22.266;2024-03-02T10:28:59;16.65;58.31
75387;DHT22;63966;47.914;22.266;2024-03-02T10:32:03;16.87;56.73
75387;DHT22;63966;47.914;22.266;2024-03-02T10:35:07;16.93;55.92
75387;DHT22;63966;47.914;22.266;2024-03-02T10:38:11;16.66;55.57
75387;DHT22;63966;47.914;22.266;2024-03-02T10:41:19;16.75;55.96
75387;DHT22;63966;47.914;22.266;2024-03-02T10:44:27;16.62;56.62
75387;DHT22;63966;47.914;22.266;2024-03-02T10:47:32;16.93;55.93
75387;DHT22;63966;47.914;22.266;2024-03-02T10:50:36;16.99;55.45
75387;DHT22;63966;47.914;22.266;2024-03-02T10:53:39;16.94;56.27
75387;DHT22;63966;47.914;22.266;2024-03-02T10:56:44;17.14;55.33
75387;DHT22;63966;47.914;22.266;2024-03-02T10:59:53;16.93;55.50
75387;DHT22;63966;47.914;22.266;2024-03-02T11:03:06;17.08;54.92
75387;DHT22;63966;47.914;22.266;2024-03-02T11:06:10;17.06;56.24
75387;DHT22;63966;47.914;22.266;2024-03-02T11:09:15;17.23;56.87
75387;DHT22;63966;47.914;22.266;2024-03-02T11:12:30;17.48;55.21
75387;DHT22;63966;47.914;22.266;2024-03-02T11:15:35;17.39;54.47
75387;DHT22;63966;47.914;22.266;2024-03-02T11:18:42;17.42;55.14
75387;DHT22;63966;47.914;22.266;2024-03-02T11:21:47;17.21;55.11
75387;DHT22;63966;47.914;22.266;2024-03-02T11:24:52;17.44;55.32
75387;DHT22;63966;47.914;22.266;2024-03-02T11:30:59;16.97;56.62
75387;DHT22;63966;47.914;22.266;2024-03-02T11:34:29;16.99;59.54
75387;DHT22;63966;47.914;22.266;2024-03-02T11:37:33;17.61;57.42
75387;DHT22;63966;47.914;22.266;2024-03-02T11:40:40;17.87;55.86
75387;DHT22;63966;47.914;22.266;2024-03-02T11:43:44;17.48;57.69
75387;DHT22;63966;47.914;22.266;2024-03-02T11:46:57;17.25;56.54
75387;DHT22;63966;47.914;22.266;2024-03-02T11:50:01;17.13;57.42
75387;DHT22;63966;47.914;22.266;2024-03-02T11:53:09;16.86;59.23
75387;DHT22;63966;47.914;22.266;2024-03-02T11:56:14;16.63;58.56
75387;DHT22;63966;47.914;22.266;2024-03-02T11:59:20;16.32;59.57
75387;DHT22;63966;47.914;22.266;2024-03-02T12:02:24;16.48;58.57
75387;DHT22;63966;47.914;22.266;2024-03-02T12:05:28;16.12;59.55
75387;DHT22;63966;47.914;22.266;2024-03-02T12:08:32;16.05;60.91
75387;DHT22;63966;47.914;22.266;2024-03-02T12:11:36;16.19;59.15
75387;DHT22;63966;47.914;22.266;2024-03-02T12:14:40;16.38;60.95
75387;DHT22;63966;47.914;22.266;2024-03-02T12:17:43;16.77;59.13
75387;DHT22;63966;47.914;22.266;2024-03-02T12:20:49;16.70;58.77
75387;DHT22;63966;47.914;22.266;2024-03-02T12:23:56;16.48;59.64
75387;DHT22;63966;47.914;22.266;2024-03-02T12:27:00;16.59;57.84
75387;DHT22;63966;47.914;22.266;2024-03-02T12:30:04;16.76;58.08
75387;DHT22;63966;47.914;22.266;2024-03-02T12:33:08;16.62;58.08
75387;DHT22;63966;47.914;22.266;2024-03-02T12:36:14;16.63;58.59
75387;DHT22;63966;47.914;22.266;2024-03-02T12:39:18;16.62;59.74
75387;DHT22;63966;47.914;22.266;2024-03-02T12:42:23;16.26;59.46
75387;DHT22;63966;47.914;22.266;2024-03-02T12:45:27;16.11;59.39
75387;DHT22;63966;47.914;22.266;2024-03-02T12:48:30;16.29;59.94
75387;DHT22;63966;47.914;22.266;2024-03-02T12:51:34;16.15;59.90
75387;DHT22;63966;47.914;22.266;2024-03-02T12:54:38;16.22;59.63
75387;DHT22;63966;47.914;22.266;2024-03-02T12:57:42;16.14;60.02
75387;DHT22;63966;47.914;22.266;2024-03-02T13:00:49;16.01;59.95
75387;DHT22;63966;47.914;22.266;2024-03-02T13:03:53;15.86;59.79
75387;DHT22;63966;47.914;22.266;2024-03-02T13:07:00;15.64;61.28
75387;DHT22;63966;47.914;22.266;2024-03-02T13:10:07;15.59;61.82
75387;DHT22;63966;47.914;22.266;2024-03-02T13:13:13;15.40;62.35
75387;DHT22;63966;47.914;22.266;2024-03-02T13:16:18;15.28;62.46
75387;DHT22;63966;47.914;22.266;2024-03-02T13:19:31;15.36;62.13
75387;DHT22;63966;47.914;22.266;2024-03-02T13:22:35;15.50;62.10
75387;DHT22;63966;47.914;22.266;2024-03-02T13:25:39;15.73;61.28
75387;DHT22;63966;47.914;22.266;2024-03-02T13:28:42;15.91;60.96
75387;DHT22;63966;47.914;22.266;2024-03-02T13:31:46;16.24;60.93
75387;DHT22;63966;47.914;22.266;2024-03-02T13:34:51;16.24;60.13
75387;DHT22;63966;47.914;22.266;2024-03-02T13:38:15;15.96;60.37
75387;DHT22;63966;47.914;22.266;2024-03-02T13:41:18;15.94;61.36
75387;DHT22;63966;47.914;22.266;2024-03-02T13:44:23;15.74;61.77
75387;DHT22;63966;47.914;22.266;2024-03-02T13:47:27;15.64;61.98
75387;DHT22;63966;47.914;22.266;2024-03-02T13:50:31;15.69;61.79
75387;DHT22;63966;47.914;22.266;2024-03-02T13:53:35;15.81;62.04
75387;DHT22;63966;47.914;22.266;2024-03-02T13:56:39;15.81;61.45
75387;DHT22;63966;47.914;22.266;2024-03-02T13:59:43;15.84;62.40
75387;DHT22;63966;47.914;22.266;2024-03-02T14:02:47;15.69;62.88
75387;DHT22;63966;47.914;22.266;2024-03-02T14:05:53;15.38;63.30
75387;DHT22;63966;47.914;22.266;2024-03-02T14:08:56;15.46;63.29
75387;DHT22;63966;47.914;22.266;2024-03-02T14:12:00;15.33;63.77
75387;DHT22;63966;47.914;22.266;2024-03-02T14:15:04;15.33;64.06
75387;DHT22;63966;47.914;22.266;2024-03-02T14:18:07;15.42;63.60
75387;DHT22;63966;47.914;22.266;2024-03-02T14:21:14;15.33;64.21
75387;DHT22;63966;47.914;22.266;2024-03-02T14:24:17;15.39;64.36
75387;DHT22;63966;47.914;22.266;2024-03-02T14:27:21;15.42;64.31
75387;DHT22;63966;47.914;22.266;2024-03-02T14:30:40;15.22;65.35
75387;DHT22;63966;47.914;22.266;2024-03-02T14:33:44;15.25;64.53
75387;DHT22;63966;47.914;22.266;2024-03-02T14:36:47;15.06;64.92
75387;DHT22;63966;47.914;22.266;2024-03-02T14:39:51;15.05;65.38
75387;DHT22;63966;47.914;22.266;2024-03-02T14:42:55;14.87;66.32
75387;DHT22;63966;47.914;22.266;2024-03-02T14:45:59;14.99;65.26
75387;DHT22;63966;47.914;22.266;2024-03-02T14:49:03;14.78;66.26
75387;DHT22;63966;47.914;22.266;2024-03-02T14:52:07;14.67;67.02
75387;DHT22;63966;47.914;22.266;2024-03-02T14:55:12;14.56;67.01
75387;DHT22;63966;47.914;22.266;2024-03-02T14:58:16;14.54;67.24
75387;DHT22;63966;47.914;22.266;2024-03-02T15:01:19;14.46;67.34
75387;DHT22;63966;47.914;22.266;2024-03-02T15:04:26;14.54;66.58
75387;DHT22;63966;47.914;22.266;2024-03-02T15:07:30;14.41;66.81
75387;DHT22;63966;47.914;22.266;2024-03-02T15:10:33;14.59;66.50
75387;DHT22;63966;47.914;22.266;2024-03-02T15:13:37;14.33;67.24
75387;DHT22;63966;47.914;22.266;2024-03-02T15:16:41;14.29;67.25
75387;DHT22;63966;47.914;22.266;2024-03-02T15:19:46;14.27;67.33
75387;DHT22;63966;47.914;22.266;2024-03-02T15:22:49;14.15;67.82
75387;DHT22;63966;47.914;22.266;2024-03-02T15:25:53;14.10;68.20
75387;DHT22;63966;47.914;22.266;2024-03-02T15:28:56;14.02;68.58
75387;DHT22;63966;47.914;22.266;2024-03-02T15:32:02;14.02;68.79
75387;DHT22;63966;47.914;22.266;2024-03-02T15:35:10;13.90;69.20
75387;DHT22;63966;47.914;22.266;2024-03-02T15:38:13;13.92;69.01
75387;DHT22;63966;47.914;22.266;2024-03-02T15:41:34;13.75;69.88
75387;DHT22;63966;47.914;22.266;2024-03-02T15:44:37;13.65;70.11
75387;DHT22;63966;47.914;22.266;2024-03-02T15:47:43;14.01;68.81
75387;DHT22;63966;47.914;22.266;2024-03-02T15:50:47;13.88;69.27
75387;DHT22;63966;47.914;22.266;2024-03-02T15:53:50;13.75;69.72
75387;DHT22;63966;47.914;22.266;2024-03-02T15:56:54;13.53;70.72
75387;DHT22;63966;47.914;22.266;2024-03-02T15:59:58;13.72;69.73
75387;DHT22;63966;47.914;22.266;2024-03-02T16:03:02;13.67;69.98
75387;DHT22;63966;47.914;22.266;2024-03-02T16:06:06;13.50;71.28
75387;DHT22;63966;47.914;22.266;2024-03-02T16:09:09;13.69;70.48
75387;DHT22;63966;47.914;22.266;2024-03-02T16:12:14;13.54;70.71
75387;DHT22;63966;47.914;22.266;2024-03-02T16:15:18;13.68;70.22
75387;DHT22;63966;47.914;22.266;2024-03-02T16:18:22;13.12;72.03
75387;DHT22;63966;47.914;22.266;2024-03-02T16:21:25;12.92;73.15
75387;DHT22;63966;47.914;22.266;2024-03-02T16:24:29;13.00;73.01
75387;DHT22;63966;47.914;22.266;2024-03-02T16:27:33;13.17;72.48
75387;DHT22;63966;47.914;22.266;2024-03-02T16:30:39;13.53;71.14
75387;DHT22;63966;47.914;22.266;2024-03-02T16:33:43;13.20;71.97
75387;DHT22;63966;47.914;22.266;2024-03-02T16:36:47;13.09;72.82
75387;DHT22;63966;47.914;22.266;2024-03-02T16:39:50;12.86;73.30
75387;DHT22;63966;47.914;22.266;2024-03-02T16:42:54;12.83;73.50
75387;DHT22;63966;47.914;22.266;2024-03-02T16:45:59;12.86;73.09
75387;DHT22;63966;47.914;22.266;2024-03-02T16:49:03;12.96;73.14
75387;DHT22;63966;47.914;22.266;2024-03-02T16:52:07;13.04;73.06
75387;DHT22;63966;47.914;22.266;2024-03-02T16:55:11;12.82;73.55
75387;DHT22;63966;47.914;22.266;2024-03-02T16:58:15;12.69;74.13
75387;DHT22;63966;47.914;22.266;2024-03-02T17:01:21;12.85;73.75
75387;DHT22;63966;47.914;22.266;2024-03-02T17:04:25;12.91;73.77
75387;DHT22;63966;47.914;22.266;2024-03-02T17:07:29;12.71;74.18
75387;DHT22;63966;47.914;22.266;2024-03-02T17:10:34;12.54;75.09
75387;DHT22;63966;47.914;22.266;2024-03-02T17:13:37;12.65;74.43
75387;DHT22;63966;47.914;22.266;2024-03-02T17:16:41;12.55;75.04
75387;DHT22;63966;47.914;22.266;2024-03-02T17:19:45;12.54;75.18
75387;DHT22;63966;47.914;22.266;2024-03-02T17:22:48;12.42;75.56
75387;DHT22;63966;47.914;22.266;2024-03-02T17:25:52;12.37;75.77
75387;DHT22;63966;47.914;22.266;2024-03-02T17:28:55;12.23;76.49
75387;DHT22;63966;47.914;22.266;2024-03-02T17:31:59;12.16;76.87
75387;DHT22;63966;47.914;22.266;2024-03-02T17:35:02;12.24;76.61
75387;DHT22;63966;47.914;22.266;2024-03-02T17:38:07;12.08;76.95
75387;DHT22;63966;47.914;22.266;2024-03-02T17:41:10;12.06;76.98
75387;DHT22;63966;47.914;22.266;2024-03-02T17:44:14;11.94;77.46
75387;DHT22;63966;47.914;22.266;2024-03-02T17:47:17;12.44;75.97
75387;DHT22;63966;47.914;22.266;2024-03-02T17:50:21;12.14;76.55
75387;DHT22;63966;47.914;22.266;2024-03-02T17:53:25;11.91;77.39
75387;DHT22;63966;47.914;22.266;2024-03-02T17:56:28;11.83;77.71
75387;DHT22;63966;47.914;22.266;2024-03-02T17:59:33;11.66;78.19
75387;DHT22;63966;47.914;22.266;2024-03-02T18:02:37;11.68;78.17
75387;DHT22;63966;47.914;22.266;2024-03-02T18:05:40;11.65;78.24
75387;DHT22;63966;47.914;22.266;2024-03-02T18:08:44;11.54;78.54
75387;DHT22;63966;47.914;22.266;2024-03-02T18:11:47;11.35;78.96
75387;DHT22;63966;47.914;22.266;2024-03-02T18:14:51;11.18;79.36
75387;DHT22;63966;47.914;22.266;2024-03-02T18:17:54;11.29;79.19
75387;DHT22;63966;47.914;22.266;2024-03-02T18:21:18;11.24;79.24
75387;DHT22;63966;47.914;22.266;2024-03-02T18:24:21;11.27;79.14
75387;DHT22;63966;47.914;22.266;2024-03-02T18:27:28;11.25;79.51
75387;DHT22;63966;47.914;22.266;2024-03-02T18:30:33;11.21;79.36
75387;DHT22;63966;47.914;22.266;2024-03-02T18:33:36;11.20;79.25
75387;DHT22;63966;47.914;22.266;2024-03-02T18:36:40;11.08;79.36
75387;DHT22;63966;47.914;22.266;2024-03-02T18:39:43;11.22;79.15
75387;DHT22;63966;47.914;22.266;2024-03-02T18:42:48;10.84;80.22
75387;DHT22;63966;47.914;22.266;2024-03-02T18:45:52;10.63;80.66
75387;DHT22;63966;47.914;22.266;2024-03-02T18:48:58;10.56;81.02
75387;DHT22;63966;47.914;22.266;2024-03-02T18:52:02;10.57;81.04
75387;DHT22;63966;47.914;22.266;2024-03-02T18:55:07;10.49;81.20
75387;DHT22;63966;47.914;22.266;2024-03-02T18:58:11;10.24;82.16
75387;DHT22;63966;47.914;22.266;2024-03-02T19:01:15;10.21;82.56
75387;DHT22;63966;47.914;22.266;2024-03-02T19:04:19;10.08;82.55
75387;DHT22;63966;47.914;22.266;2024-03-02T19:07:23;10.05;82.53
75387;DHT22;63966;47.914;22.266;2024-03-02T19:10:27;9.99;82.49
75387;DHT22;63966;47.914;22.266;2024-03-02T19:13:31;9.95;82.25
75387;DHT22;63966;47.914;22.266;2024-03-02T19:16:35;9.86;82.30